Time;durP1;ratioP1;P1;durP2;ratioP2;P2;SDS_P1;SDS_P2;PMS_P1;PMS_P2;Temp;Humidity;BMP_temperature;BMP_pressure;BME280_temperature;BME280_humidity;BME280_pressure;Samples;Min_cycle;Max_cycle;Signal;HPM_P1;HPM_P2
2021/06/05 00:01:38;;;;;;;11.77;4.78;;;;;;;;;;5154832;27;20052;-63
2021/06/05 00:04:04;;;;;;;11.75;5.15;;;;;;;;;;5154758;27;20038;-63
2021/06/05 00:06:31;;;;;;;16.00;5.18;;;;;;;;;;5154816;27;20133;-63
2021/06/05 00:08:57;;;;;;;11.75;4.90;;;;;;;;;;5154865;27;20386;-63
2021/06/05 00:11:25;;;;;;;12.23;4.35;;;;;;;;;;5136185;27;20014;-64
2021/06/05 00:13:55;;;;;;;13.73;4.68;;;;;;;;;;5154555;27;20033;-63
2021/06/05 00:16:23;;;;;;;10.43;4.63;;;;;;;;;;5154279;27;20044;-62
2021/06/05 00:18:50;;;;;;;9.50;4.80;;;;;;;;;;5154336;27;20023;-63
2021/06/05 00:21:18;;;;;;;9.00;4.70;;;;;;;;;;5154619;27;20037;-63
2021/06/05 00:23:44;;;;;;;9.32;4.85;;;;;;;;;;5154588;27;20035;-63
2021/06/05 00:26:10;;;;;;;12.93;4.80;;;;;;;;;;5153712;27;20045;-63
2021/06/05 00:28:36;;;;;;;9.68;4.45;;;;;;;;;;5154167;27;20075;-63
2021/06/05 00:31:03;;;;;;;11.13;4.90;;;;;;;;;;5154240;27;20512;-63
2021/06/05 00:33:29;;;;;;;12.13;4.88;;;;;;;;;;5153863;27;20358;-64
2021/06/05 00:35:55;;;;;;;11.00;4.97;;;;;;;;;;5154220;27;20048;-64
2021/06/05 00:38:22;;;;;;;7.82;4.45;;;;;;;;;;5154017;27;20038;-64
2021/06/05 00:40:50;;;;;;;10.25;4.53;;;;;;;;;;5135465;27;20411;-64
2021/06/05 00:43:17;;;;;;;9.60;4.55;;;;;;;;;;5152956;27;20602;-64
2021/06/05 00:45:44;;;;;;;8.70;4.28;;;;;;;;;;5153783;27;20023;-64
2021/06/05 00:48:11;;;;;;;11.23;5.15;;;;;;;;;;5153728;27;20023;-64
2021/06/05 00:50:38;;;;;;;12.32;4.43;;;;;;;;;;5153909;27;20111;-65
2021/06/05 00:53:05;;;;;;;9.02;4.47;;;;;;;;;;5153975;27;20025;-64
2021/06/05 00:55:32;;;;;;;11.98;4.68;;;;;;;;;;5153615;27;20022;-64
2021/06/05 00:57:59;;;;;;;6.80;4.18;;;;;;;;;;5134959;27;20531;-64
2021/06/05 01:00:27;;;;;;;8.70;4.60;;;;;;;;;;5153667;27;20037;-64
2021/06/05 01:02:56;;;;;;;9.23;3.95;;;;;;;;;;5153412;27;20102;-63
2021/06/05 01:05:22;;;;;;;8.13;4.35;;;;;;;;;;5153422;27;20599;-63
2021/06/05 01:07:49;;;;;;;7.60;4.00;;;;;;;;;;5153323;27;20630;-64
2021/06/05 01:10:28;;;;;;;7.22;3.97;;;;;;;;;;5153439;27;20105;-64
2021/06/05 01:12:57;;;;;;;10.40;4.80;;;;;;;;;;5153634;27;20477;-64
2021/06/05 01:15:28;;;;;;;9.73;4.10;;;;;;;;;;5153077;27;20043;-65
2021/06/05 01:18:18;;;;;;;10.60;4.60;;;;;;;;;;5153060;27;20022;-64
2021/06/05 01:20:53;;;;;;;7.82;4.40;;;;;;;;;;5144769;27;20039;-64
2021/06/05 01:23:40;;;;;;;8.63;4.72;;;;;;;;;;5153331;27;20027;-64
2021/06/05 01:26:19;;;;;;;11.07;4.43;;;;;;;;;;5153213;27;20106;-64
2021/06/05 01:29:04;;;;;;;10.32;4.65;;;;;;;;;;5153149;27;20102;-64
2021/06/05 01:31:33;;;;;;;8.52;4.00;;;;;;;;;;5153200;27;20015;-63
2021/06/05 01:34:00;;;;;;;8.75;4.47;;;;;;;;;;5152931;27;20015;-63
2021/06/05 01:36:27;;;;;;;7.72;3.95;;;;;;;;;;5152853;27;20022;-64
2021/06/05 01:38:58;;;;;;;10.70;4.60;;;;;;;;;;5152715;27;20035;-65
2021/06/05 01:41:25;;;;;;;8.00;4.88;;;;;;;;;;5152742;27;20523;-65
2021/06/05 01:43:51;;;;;;;9.82;3.75;;;;;;;;;;5152620;27;20031;-64
2021/06/05 01:46:20;;;;;;;8.95;4.10;;;;;;;;;;5152855;27;20500;-64
2021/06/05 01:48:46;;;;;;;9.80;4.65;;;;;;;;;;5152666;27;20019;-65
2021/06/05 01:51:13;;;;;;;7.68;4.18;;;;;;;;;;5152717;27;20043;-65
2021/06/05 01:53:43;;;;;;;12.00;4.10;;;;;;;;;;5145662;27;20023;-64
2021/06/05 01:56:25;;;;;;;14.45;3.83;;;;;;;;;;5131972;27;20061;-65
2021/06/05 01:58:51;;;;;;;8.35;3.83;;;;;;;;;;5131883;27;20038;-64
2021/06/05 02:01:18;;;;;;;7.43;4.20;;;;;;;;;;5131966;27;20098;-64
2021/06/05 02:03:44;;;;;;;8.20;3.95;;;;;;;;;;5131739;27;20110;-64
2021/06/05 02:06:10;;;;;;;8.75;3.90;;;;;;;;;;5131791;27;20504;-64
2021/06/05 02:08:36;;;;;;;7.00;4.10;;;;;;;;;;5132049;27;20081;-65
2021/06/05 02:11:08;;;;;;;8.07;4.70;;;;;;;;;;5131748;27;20015;-64
2021/06/05 02:13:42;;;;;;;9.68;3.80;;;;;;;;;;5113410;27;20084;-64
2021/06/05 02:16:22;;;;;;;7.07;4.00;;;;;;;;;;5131703;28;20034;-65
2021/06/05 02:18:50;;;;;;;9.88;3.92;;;;;;;;;;5132072;28;20020;-65
2021/06/05 02:21:18;;;;;;;9.43;4.35;;;;;;;;;;5131696;28;20024;-64
2021/06/05 02:23:53;;;;;;;10.10;4.22;;;;;;;;;;5131696;28;20063;-64
2021/06/05 02:26:21;;;;;;;9.43;4.22;;;;;;;;;;5113368;28;20019;-64
2021/06/05 02:28:50;;;;;;;9.05;4.20;;;;;;;;;;5131621;28;20023;-64
2021/06/05 02:31:16;;;;;;;9.43;4.38;;;;;;;;;;5112820;28;20023;-65
2021/06/05 02:33:42;;;;;;;9.77;4.35;;;;;;;;;;5112971;28;20027;-65
2021/06/05 02:36:11;;;;;;;9.25;5.25;;;;;;;;;;5131461;28;20034;-64
2021/06/05 02:38:38;;;;;;;8.75;4.13;;;;;;;;;;5131113;28;20042;-65
2021/06/05 02:41:07;;;;;;;9.13;4.32;;;;;;;;;;5131384;28;20027;-64
2021/06/05 02:43:33;;;;;;;8.88;4.80;;;;;;;;;;5131226;28;20027;-64
2021/06/05 02:46:02;;;;;;;15.63;4.82;;;;;;;;;;5131492;28;20023;-64
2021/06/05 02:48:59;;;;;;;9.15;4.93;;;;;;;;;;5131638;27;20027;-64
2021/06/05 02:51:28;;;;;;;7.47;4.00;;;;;;;;;;5097019;27;20083;-64
2021/06/05 02:53:54;;;;;;;9.02;4.20;;;;;;;;;;5135319;27;20571;-65
2021/06/05 02:56:20;;;;;;;6.45;3.95;;;;;;;;;;5135283;27;20035;-64
2021/06/05 02:58:46;;;;;;;9.40;4.30;;;;;;;;;;5135227;27;20015;-64
2021/06/05 03:01:13;;;;;;;8.73;3.97;;;;;;;;;;5135139;27;20080;-64
2021/06/05 03:03:39;;;;;;;7.38;4.05;;;;;;;;;;5135136;27;20046;-64
2021/06/05 03:06:06;;;;;;;6.78;3.88;;;;;;;;;;5135347;27;20494;-64
2021/06/05 03:08:34;;;;;;;6.35;3.72;;;;;;;;;;5135009;27;20023;-64
2021/06/05 03:11:01;;;;;;;7.65;3.65;;;;;;;;;;5134924;27;20023;-64
2021/06/05 03:13:27;;;;;;;7.40;3.72;;;;;;;;;;5116449;27;20393;-65
2021/06/05 03:15:54;;;;;;;6.45;3.63;;;;;;;;;;5116302;27;20023;-64
2021/06/05 03:18:21;;;;;;;6.75;3.92;;;;;;;;;;5134854;27;20051;-64
2021/06/05 03:20:48;;;;;;;5.93;3.75;;;;;;;;;;5134850;27;20054;-64
2021/06/05 03:23:15;;;;;;;6.65;3.45;;;;;;;;;;5134455;27;20054;-64
2021/06/05 03:25:41;;;;;;;7.85;4.00;;;;;;;;;;5116380;27;20023;-65
2021/06/05 03:28:08;;;;;;;8.27;3.90;;;;;;;;;;5134309;27;20027;-64
2021/06/05 03:30:35;;;;;;;7.47;4.25;;;;;;;;;;5134384;27;20419;-65
2021/06/05 03:33:01;;;;;;;7.38;3.92;;;;;;;;;;5144072;27;20035;-65
2021/06/05 03:35:27;;;;;;;9.68;4.53;;;;;;;;;;5155245;27;20039;-65
2021/06/05 03:37:53;;;;;;;13.50;4.20;;;;;;;;;;5155361;27;20077;-64
2021/06/05 03:40:22;;;;;;;10.00;4.10;;;;;;;;;;5154624;27;20039;-64
2021/06/05 03:42:48;;;;;;;11.45;4.22;;;;;;;;;;5154928;27;20066;-64
2021/06/05 03:45:14;;;;;;;11.13;4.20;;;;;;;;;;5155213;27;20018;-64
2021/06/05 03:47:41;;;;;;;10.10;4.13;;;;;;;;;;5136617;27;20023;-65
2021/06/05 03:50:09;;;;;;;6.38;3.53;;;;;;;;;;5155017;27;20026;-64
2021/06/05 03:52:35;;;;;;;6.72;4.18;;;;;;;;;;5154137;27;20022;-64
2021/06/05 03:55:01;;;;;;;10.13;4.32;;;;;;;;;;5119101;27;20538;-65
2021/06/05 03:57:27;;;;;;;8.68;4.13;;;;;;;;;;5134631;27;20031;-66
2021/06/05 03:59:55;;;;;;;6.63;4.00;;;;;;;;;;5134561;27;20023;-65
2021/06/05 04:02:22;;;;;;;9.65;4.35;;;;;;;;;;5133244;27;20023;-64
2021/06/05 04:04:48;;;;;;;12.35;3.80;;;;;;;;;;5134571;27;20027;-65
2021/06/05 04:07:14;;;;;;;6.45;3.63;;;;;;;;;;5134474;27;20025;-66
2021/06/05 04:09:41;;;;;;;12.50;4.13;;;;;;;;;;5134490;27;20035;-65
2021/06/05 04:12:08;;;;;;;10.55;3.90;;;;;;;;;;5134331;27;20023;-65
2021/06/05 04:14:34;;;;;;;5.55;3.58;;;;;;;;;;5134369;27;20042;-64
2021/06/05 04:17:00;;;;;;;7.82;3.80;;;;;;;;;;5134303;27;20038;-65
2021/06/05 04:19:26;;;;;;;7.35;3.65;;;;;;;;;;5134123;27;20114;-64
2021/06/05 04:21:54;;;;;;;9.32;4.05;;;;;;;;;;5133898;27;20016;-64
2021/06/05 04:24:20;;;;;;;6.55;3.53;;;;;;;;;;5115490;27;20059;-64
2021/06/05 04:26:46;;;;;;;7.88;3.83;;;;;;;;;;5115646;27;20016;-65
2021/06/05 04:29:13;;;;;;;5.85;3.42;;;;;;;;;;5134093;27;20027;-65
2021/06/05 04:31:39;;;;;;;7.90;3.63;;;;;;;;;;5134086;27;20019;-64
2021/06/05 04:34:05;;;;;;;8.05;3.50;;;;;;;;;;5133970;27;20054;-64
2021/06/05 04:36:31;;;;;;;8.68;3.83;;;;;;;;;;5115373;27;20023;-64
2021/06/05 04:38:57;;;;;;;8.43;4.03;;;;;;;;;;5133920;27;20057;-64
2021/06/05 04:41:24;;;;;;;9.60;4.22;;;;;;;;;;5115095;27;20051;-65
2021/06/05 04:43:50;;;;;;;9.10;3.60;;;;;;;;;;5133725;27;20119;-65
2021/06/05 04:46:16;;;;;;;7.55;3.38;;;;;;;;;;5133858;27;20019;-64
2021/06/05 04:48:43;;;;;;;6.93;3.63;;;;;;;;;;5133914;27;20026;-65
2021/06/05 04:51:10;;;;;;;6.65;3.50;;;;;;;;;;5133608;27;20050;-64
2021/06/05 04:53:36;;;;;;;8.18;3.92;;;;;;;;;;5133607;27;20026;-65
2021/06/05 04:56:04;;;;;;;7.63;3.95;;;;;;;;;;5133412;27;20081;-64
2021/06/05 04:58:30;;;;;;;8.80;4.40;;;;;;;;;;5133484;27;20015;-65
2021/06/05 05:00:56;;;;;;;8.35;3.90;;;;;;;;;;5133449;27;20053;-64
2021/06/05 05:03:24;;;;;;;6.63;4.13;;;;;;;;;;5133587;27;20642;-65
2021/06/05 05:05:51;;;;;;;8.13;4.15;;;;;;;;;;5133396;27;20462;-64
2021/06/05 05:08:18;;;;;;;8.85;4.53;;;;;;;;;;5133365;27;20027;-65
2021/06/05 05:10:46;;;;;;;10.05;5.55;;;;;;;;;;5132941;27;20504;-64
2021/06/05 05:13:13;;;;;;;8.27;5.05;;;;;;;;;;5133078;27;20102;-65
2021/06/05 05:15:40;;;;;;;8.32;4.78;;;;;;;;;;5133220;27;20019;-64
2021/06/05 05:18:06;;;;;;;8.77;5.00;;;;;;;;;;5133104;27;20018;-64
2021/06/05 05:20:35;;;;;;;9.32;4.78;;;;;;;;;;5133282;27;20094;-64
2021/06/05 05:23:01;;;;;;;11.27;5.70;;;;;;;;;;5114716;27;20381;-65
2021/06/05 05:25:27;;;;;;;11.77;6.10;;;;;;;;;;5132827;27;20019;-64
2021/06/05 05:27:53;;;;;;;7.70;5.10;;;;;;;;;;5132819;27;20602;-64
2021/06/05 05:30:23;;;;;;;9.55;5.50;;;;;;;;;;5132855;27;20023;-65
2021/06/05 05:32:49;;;;;;;10.73;6.22;;;;;;;;;;5132905;27;20408;-64
2021/06/05 05:35:15;;;;;;;10.13;5.78;;;;;;;;;;5114347;27;20027;-64
2021/06/05 05:37:41;;;;;;;10.85;6.03;;;;;;;;;;5132809;27;20110;-65
2021/06/05 05:40:08;;;;;;;11.07;6.43;;;;;;;;;;5132754;27;20036;-64
2021/06/05 05:42:34;;;;;;;13.43;5.55;;;;;;;;;;5132651;27;20035;-65
2021/06/05 05:45:00;;;;;;;12.23;6.25;;;;;;;;;;5132481;27;20027;-65
2021/06/05 05:47:26;;;;;;;14.25;5.70;;;;;;;;;;5132348;27;20018;-65
2021/06/05 05:49:52;;;;;;;8.13;4.93;;;;;;;;;;5132454;27;20477;-64
2021/06/05 05:52:18;;;;;;;11.98;6.47;;;;;;;;;;5114064;27;20106;-66
2021/06/05 05:54:44;;;;;;;9.52;5.15;;;;;;;;;;5148854;27;20106;-64
2021/06/05 05:57:10;;;;;;;13.05;4.65;;;;;;;;;;5153055;27;20032;-64
2021/06/05 05:59:37;;;;;;;9.52;5.13;;;;;;;;;;5152903;27;20051;-65
2021/06/05 06:02:04;;;;;;;12.30;5.50;;;;;;;;;;5152991;27;20023;-66
2021/06/05 06:04:30;;;;;;;7.82;4.75;;;;;;;;;;5153059;27;20363;-64
2021/06/05 06:06:56;;;;;;;9.98;4.60;;;;;;;;;;5153010;27;20019;-67
2021/06/05 06:09:22;;;;;;;12.95;5.47;;;;;;;;;;5153154;27;20031;-64
2021/06/05 06:11:48;;;;;;;12.05;5.03;;;;;;;;;;5152973;27;20675;-64
2021/06/05 06:14:16;;;;;;;9.02;5.28;;;;;;;;;;5134596;27;20122;-65
2021/06/05 06:16:42;;;;;;;11.90;4.68;;;;;;;;;;5152903;27;20014;-65
2021/06/05 06:19:12;;;;;;;7.63;4.57;;;;;;;;;;5152813;27;20025;-64
2021/06/05 06:21:38;;;;;;;8.48;5.10;;;;;;;;;;5152672;27;20017;-64
2021/06/05 06:24:05;;;;;;;11.95;4.60;;;;;;;;;;5152890;27;20031;-64
2021/06/05 06:26:31;;;;;;;10.93;4.78;;;;;;;;;;5157161;27;20441;-64
2021/06/05 06:29:07;;;;;;;10.63;4.88;;;;;;;;;;5157174;27;20027;-64
2021/06/05 06:31:33;;;;;;;11.15;4.93;;;;;;;;;;5156971;27;20485;-64
2021/06/05 06:34:00;;;;;;;11.55;5.47;;;;;;;;;;5157117;27;20107;-64
2021/06/05 06:36:26;;;;;;;14.18;4.97;;;;;;;;;;5138286;27;20122;-64
2021/06/05 06:38:52;;;;;;;9.07;4.80;;;;;;;;;;5156896;27;20075;-64
2021/06/05 06:41:24;;;;;;;7.35;4.20;;;;;;;;;;5156832;27;20055;-64
2021/06/05 06:43:50;;;;;;;13.55;4.90;;;;;;;;;;5156727;27;20043;-64
2021/06/05 06:46:21;;;;;;;8.85;4.60;;;;;;;;;;5156847;27;20045;-64
2021/06/05 06:48:48;;;;;;;9.52;4.38;;;;;;;;;;5138499;27;20502;-64
2021/06/05 06:51:14;;;;;;;9.07;4.10;;;;;;;;;;5138042;27;20057;-65
2021/06/05 06:53:40;;;;;;;10.77;4.32;;;;;;;;;;5149298;27;20024;-65
2021/06/05 06:56:07;;;;;;;8.00;4.22;;;;;;;;;;5135880;27;20019;-65
2021/06/05 06:58:33;;;;;;;10.05;4.20;;;;;;;;;;5135897;27;20019;-64
2021/06/05 07:00:59;;;;;;;8.98;4.28;;;;;;;;;;5135822;27;20474;-65
2021/06/05 07:03:25;;;;;;;7.00;4.13;;;;;;;;;;5135745;27;20039;-64
2021/06/05 07:05:51;;;;;;;11.93;4.47;;;;;;;;;;5135746;27;20019;-64
2021/06/05 07:08:20;;;;;;;8.20;4.38;;;;;;;;;;5135748;27;20027;-64
2021/06/05 07:10:47;;;;;;;8.63;4.72;;;;;;;;;;5135658;27;20019;-64
2021/06/05 07:13:13;;;;;;;7.85;3.53;;;;;;;;;;5135467;27;20034;-64
2021/06/05 07:15:40;;;;;;;7.90;3.80;;;;;;;;;;5135206;27;20110;-64
2021/06/05 07:18:07;;;;;;;7.03;3.78;;;;;;;;;;5135413;27;20023;-64
2021/06/05 07:20:33;;;;;;;9.10;4.22;;;;;;;;;;5135320;27;20015;-64
2021/06/05 07:22:59;;;;;;;10.10;3.90;;;;;;;;;;5135327;27;20412;-65
2021/06/05 07:25:27;;;;;;;9.68;3.72;;;;;;;;;;5135277;27;20127;-64
2021/06/05 07:27:53;;;;;;;9.45;3.38;;;;;;;;;;5135310;27;20054;-64
2021/06/05 07:30:19;;;;;;;5.82;3.20;;;;;;;;;;5135138;27;20057;-65
2021/06/05 07:32:46;;;;;;;7.55;3.30;;;;;;;;;;5135086;27;20023;-65
2021/06/05 07:35:12;;;;;;;8.25;3.53;;;;;;;;;;5134816;27;20015;-65
2021/06/05 07:37:38;;;;;;;9.02;3.17;;;;;;;;;;5134824;27;20024;-64
2021/06/05 07:40:07;;;;;;;8.10;3.40;;;;;;;;;;5134978;27;20486;-65
2021/06/05 07:42:34;;;;;;;10.15;3.38;;;;;;;;;;5116523;27;20063;-66
2021/06/05 07:45:00;;;;;;;8.52;2.90;;;;;;;;;;5135104;27;20019;-64
2021/06/05 07:47:26;;;;;;;5.95;2.83;;;;;;;;;;5116535;27;20470;-66
2021/06/05 07:49:52;;;;;;;5.68;2.28;;;;;;;;;;5134790;27;20110;-64
2021/06/05 07:52:23;;;;;;;6.18;2.60;;;;;;;;;;5142074;27;20048;-65
2021/06/05 07:54:52;;;;;;;6.70;2.88;;;;;;;;;;5138213;27;20023;-64
2021/06/05 07:57:18;;;;;;;4.43;2.60;;;;;;;;;;5116380;27;20030;-64
2021/06/05 07:59:44;;;;;;;8.95;2.78;;;;;;;;;;5134461;27;20080;-65
2021/06/05 08:02:11;;;;;;;4.85;2.42;;;;;;;;;;5134625;27;20024;-65
2021/06/05 08:04:37;;;;;;;6.22;2.65;;;;;;;;;;5116055;27;20033;-65
2021/06/05 08:07:03;;;;;;;6.22;2.97;;;;;;;;;;5134413;27;20351;-64
2021/06/05 08:09:30;;;;;;;5.93;2.55;;;;;;;;;;5134406;27;20051;-64
2021/06/05 08:11:56;;;;;;;5.85;2.72;;;;;;;;;;5134377;27;20026;-66
2021/06/05 08:14:22;;;;;;;5.50;2.65;;;;;;;;;;5116359;27;20656;-65
2021/06/05 08:16:48;;;;;;;6.75;2.80;;;;;;;;;;5134190;27;20023;-65
2021/06/05 08:19:15;;;;;;;7.80;2.80;;;;;;;;;;5134169;27;20027;-64
2021/06/05 08:21:43;;;;;;;5.78;2.50;;;;;;;;;;5134042;27;20023;-65
2021/06/05 08:24:09;;;;;;;7.85;3.00;;;;;;;;;;5133995;27;20498;-64
2021/06/05 08:26:36;;;;;;;9.43;2.67;;;;;;;;;;5134092;27;20038;-64
2021/06/05 08:29:02;;;;;;;6.75;2.15;;;;;;;;;;5134170;27;20045;-64
2021/06/05 08:31:28;;;;;;;5.15;2.15;;;;;;;;;;5133935;27;20433;-65
2021/06/05 08:33:54;;;;;;;12.80;6.15;;;;;;;;;;5134126;27;20023;-65
2021/06/05 08:36:25;;;;;;;34.65;10.25;;;;;;;;;;5133786;27;20016;-64
2021/06/05 08:38:51;;;;;;;39.10;15.98;;;;;;;;;;5133938;27;20023;-64
2021/06/05 08:41:23;;;;;;;50.13;15.13;;;;;;;;;;5134342;27;20050;-63
2021/06/05 08:43:51;;;;;;;27.95;11.23;;;;;;;;;;5133648;27;20032;-63
2021/06/05 08:46:21;;;;;;;30.48;11.02;;;;;;;;;;5115357;27;20042;-64
2021/06/05 08:48:47;;;;;;;26.58;10.55;;;;;;;;;;5132903;27;20082;-63
2021/06/05 08:51:20;;;;;;;30.27;11.15;;;;;;;;;;5133595;27;20019;-62
2021/06/05 08:53:46;;;;;;;31.23;10.73;;;;;;;;;;5141329;27;20114;-62
2021/06/05 08:56:19;;;;;;;22.52;8.40;;;;;;;;;;5154239;27;20030;-62
2021/06/05 08:58:48;;;;;;;21.60;8.85;;;;;;;;;;5153861;27;20167;-63
2021/06/05 09:01:17;;;;;;;26.33;9.98;;;;;;;;;;5153556;27;20011;-63
2021/06/05 09:03:44;;;;;;;25.17;8.68;;;;;;;;;;5153322;27;20473;-65
2021/06/05 09:06:18;;;;;;;28.50;8.85;;;;;;;;;;5153776;27;20097;-63
2021/06/05 09:08:44;;;;;;;23.88;7.97;;;;;;;;;;5153264;27;20018;-63
2021/06/05 09:11:11;;;;;;;28.63;8.82;;;;;;;;;;5153237;27;20019;-66
2021/06/05 09:13:38;;;;;;;30.10;8.48;;;;;;;;;;5153833;27;20026;-64
2021/06/05 09:16:19;;;;;;;23.65;6.45;;;;;;;;;;5153798;27;20015;-64
2021/06/05 09:18:53;;;;;;;23.30;8.45;;;;;;;;;;5153700;27;20031;-65
2021/06/05 09:21:27;;;;;;;21.70;5.88;;;;;;;;;;5134953;27;20037;-65
2021/06/05 09:23:54;;;;;;;37.47;7.28;;;;;;;;;;5152840;27;20110;-65
2021/06/05 09:26:25;;;;;;;24.27;6.80;;;;;;;;;;5140176;27;20407;-65
2021/06/05 09:29:26;;;;;;;27.13;6.65;;;;;;;;;;5123197;27;20062;-65
2021/06/05 09:31:54;;;;;;;27.15;6.72;;;;;;;;;;5048882;28;20587;-65
2021/06/05 09:34:22;;;;;;;25.08;6.70;;;;;;;;;;5133419;27;20030;-66
2021/06/05 09:36:48;;;;;;;23.05;6.65;;;;;;;;;;5152571;27;20075;-66
2021/06/05 09:39:16;;;;;;;22.45;6.05;;;;;;;;;;5152296;27;20018;-64
2021/06/05 09:41:45;;;;;;;17.67;5.70;;;;;;;;;;5151388;27;20074;-66
2021/06/05 09:44:14;;;;;;;17.33;5.85;;;;;;;;;;5152785;27;20079;-65
2021/06/05 09:46:44;;;;;;;20.23;6.13;;;;;;;;;;5153396;27;20019;-66
2021/06/05 09:49:14;;;;;;;18.98;5.57;;;;;;;;;;5153473;27;20076;-65
2021/06/05 09:51:42;;;;;;;13.30;5.53;;;;;;;;;;5153493;27;20075;-66
2021/06/05 09:54:12;;;;;;;16.08;5.03;;;;;;;;;;5153465;27;20026;-65
2021/06/05 09:56:40;;;;;;;14.85;5.15;;;;;;;;;;5153172;27;20022;-65
2021/06/05 09:59:28;;;;;;;27.95;5.43;;;;;;;;;;5153298;27;20067;-65
2021/06/05 10:01:59;;;;;;;17.23;5.38;;;;;;;;;;5153351;27;20046;-65
2021/06/05 10:04:27;;;;;;;15.73;4.85;;;;;;;;;;5153295;27;20035;-65
2021/06/05 10:06:54;;;;;;;11.63;4.57;;;;;;;;;;5153054;27;20026;-65
2021/06/05 10:09:26;;;;;;;15.13;4.97;;;;;;;;;;5153149;27;20076;-65
2021/06/05 10:11:57;;;;;;;19.35;4.68;;;;;;;;;;5153174;27;20113;-65
2021/06/05 10:14:27;;;;;;;13.50;4.35;;;;;;;;;;5153521;27;20026;-64
2021/06/05 10:17:02;;;;;;;13.07;4.50;;;;;;;;;;5153141;27;20014;-65
2021/06/05 10:19:28;;;;;;;11.15;4.05;;;;;;;;;;5153134;27;20063;-64
2021/06/05 10:21:54;;;;;;;13.70;4.40;;;;;;;;;;5131055;28;20094;-64
2021/06/05 10:24:33;;;;;;;12.98;3.83;;;;;;;;;;5132267;28;20031;-65
2021/06/05 10:27:01;;;;;;;10.50;3.92;;;;;;;;;;5113881;28;20026;-64
2021/06/05 10:29:30;;;;;;;10.85;3.88;;;;;;;;;;5132119;28;20407;-65
2021/06/05 10:31:58;;;;;;;10.20;4.65;;;;;;;;;;5132013;28;20099;-66
2021/06/05 10:34:32;;;;;;;7.93;3.72;;;;;;;;;;5132159;28;20570;-65
2021/06/05 10:36:59;;;;;;;7.95;3.40;;;;;;;;;;5132127;28;20019;-65
2021/06/05 10:39:30;;;;;;;7.40;3.20;;;;;;;;;;5132239;28;20023;-65
2021/06/05 10:42:02;;;;;;;7.43;3.42;;;;;;;;;;5131992;28;20035;-64
2021/06/05 10:44:28;;;;;;;8.68;3.22;;;;;;;;;;5132015;28;20035;-65
2021/06/05 10:47:03;;;;;;;9.65;3.40;;;;;;;;;;5132092;28;20054;-65
2021/06/05 10:49:29;;;;;;;9.43;3.20;;;;;;;;;;5131947;28;20029;-65
2021/06/05 10:52:03;;;;;;;7.80;3.40;;;;;;;;;;5132078;28;20081;-64
2021/06/05 10:54:29;;;;;;;8.23;3.28;;;;;;;;;;5113533;28;20381;-64
2021/06/05 10:56:59;;;;;;;9.05;3.17;;;;;;;;;;5131803;28;20037;-65
2021/06/05 10:59:40;;;;;;;9.43;2.97;;;;;;;;;;5131978;28;20019;-64
2021/06/05 11:02:07;;;;;;;7.10;2.72;;;;;;;;;;5131994;28;20434;-64
2021/06/05 11:04:33;;;;;;;9.20;3.38;;;;;;;;;;5131797;28;20359;-65
2021/06/05 11:07:02;;;;;;;5.95;2.75;;;;;;;;;;5131975;28;20012;-64
2021/06/05 11:09:29;;;;;;;6.30;2.85;;;;;;;;;;5113525;28;20484;-64
2021/06/05 11:11:59;;;;;;;7.00;2.58;;;;;;;;;;5135115;27;20023;-64
2021/06/05 11:14:38;;;;;;;7.82;3.22;;;;;;;;;;5135792;27;20011;-64
2021/06/05 11:17:21;;;;;;;6.03;2.60;;;;;;;;;;5135486;27;20494;-64
2021/06/05 11:19:51;;;;;;;6.63;2.72;;;;;;;;;;5135323;27;20368;-65
2021/06/05 11:22:17;;;;;;;6.63;2.50;;;;;;;;;;5117199;27;20359;-64
2021/06/05 11:25:06;;;;;;;6.38;2.60;;;;;;;;;;5117015;27;20509;-64
2021/06/05 11:27:39;;;;;;;4.95;2.28;;;;;;;;;;5096748;27;20486;-64
2021/06/05 11:30:25;;;;;;;5.50;2.28;;;;;;;;;;5144512;27;20552;-64
2021/06/05 11:32:51;;;;;;;5.97;2.33;;;;;;;;;;5154519;27;20461;-64
2021/06/05 11:35:36;;;;;;;5.82;2.60;;;;;;;;;;5156040;27;20023;-64
2021/06/05 11:38:04;;;;;;;6.18;2.60;;;;;;;;;;5155980;27;20098;-64
2021/06/05 11:41:00;;;;;;;6.82;2.60;;;;;;;;;;5155757;27;20074;-64
2021/06/05 11:43:30;;;;;;;4.55;2.20;;;;;;;;;;5142611;27;20066;-64
2021/06/05 11:45:59;;;;;;;5.70;2.40;;;;;;;;;;5155738;27;20515;-65
2021/06/05 11:48:51;;;;;;;5.65;2.13;;;;;;;;;;5155582;27;20027;-65
2021/06/05 11:51:20;;;;;;;4.72;2.33;;;;;;;;;;5152609;27;20039;-65
2021/06/05 11:53:48;;;;;;;5.28;2.17;;;;;;;;;;5155643;27;20377;-65
2021/06/05 11:56:14;;;;;;;4.68;1.83;;;;;;;;;;5155604;27;20018;-64
2021/06/05 11:58:40;;;;;;;4.80;2.38;;;;;;;;;;5155526;27;20025;-65
2021/06/05 12:01:15;;;;;;;4.85;2.30;;;;;;;;;;5155429;27;20019;-64
2021/06/05 12:03:54;;;;;;;4.82;2.08;;;;;;;;;;5155405;27;20035;-64
2021/06/05 12:06:20;;;;;;;5.93;2.10;;;;;;;;;;5155258;27;20071;-64
2021/06/05 12:08:47;;;;;;;4.35;1.75;;;;;;;;;;5136801;27;20019;-64
2021/06/05 12:11:35;;;;;;;5.55;2.28;;;;;;;;;;5155160;27;20011;-64
2021/06/05 12:14:14;;;;;;;3.35;1.70;;;;;;;;;;5155212;27;20094;-65
2021/06/05 12:16:54;;;;;;;4.43;2.00;;;;;;;;;;5155286;27;20066;-65
2021/06/05 12:19:28;;;;;;;4.13;1.88;;;;;;;;;;5155329;27;20027;-64
2021/06/05 12:21:54;;;;;;;3.83;2.05;;;;;;;;;;5135063;27;20106;-65
2021/06/05 12:24:26;;;;;;;4.97;1.88;;;;;;;;;;5155091;27;20035;-65
2021/06/05 12:26:57;;;;;;;4.43;1.70;;;;;;;;;;5155043;27;20167;-65
2021/06/05 12:29:26;;;;;;;4.15;1.92;;;;;;;;;;5154948;27;20030;-65
2021/06/05 12:31:53;;;;;;;4.25;1.63;;;;;;;;;;5154952;27;20034;-64
2021/06/05 12:34:32;;;;;;;3.83;1.80;;;;;;;;;;5154847;27;20033;-64
2021/06/05 12:36:59;;;;;;;6.47;2.05;;;;;;;;;;5154935;27;20092;-65
2021/06/05 12:39:28;;;;;;;5.32;1.83;;;;;;;;;;5154770;27;20090;-65
2021/06/05 12:41:55;;;;;;;4.65;1.90;;;;;;;;;;5154534;27;20201;-65
2021/06/05 12:44:21;;;;;;;4.78;1.90;;;;;;;;;;5154589;27;20118;-65
2021/06/05 12:46:47;;;;;;;5.63;1.65;;;;;;;;;;5154651;27;20067;-65
2021/06/05 12:49:16;;;;;;;3.95;1.70;;;;;;;;;;5136026;27;20619;-65
2021/06/05 12:51:58;;;;;;;5.35;1.98;;;;;;;;;;5154472;27;20496;-65
2021/06/05 12:54:33;;;;;;;3.65;1.63;;;;;;;;;;5154744;27;20489;-65
2021/06/05 12:57:19;;;;;;;4.15;1.80;;;;;;;;;;5154511;27;20019;-65
2021/06/05 12:59:45;;;;;;;3.97;1.67;;;;;;;;;;5154156;27;20102;-65
2021/06/05 13:02:30;;;;;;;3.80;1.63;;;;;;;;;;5135469;27;20023;-64
2021/06/05 13:05:09;;;;;;;3.30;1.50;;;;;;;;;;5154197;27;20035;-65
2021/06/05 13:07:36;;;;;;;4.35;1.60;;;;;;;;;;5154383;27;20023;-65
2021/06/05 13:10:17;;;;;;;3.13;1.60;;;;;;;;;;5154171;27;20079;-65
2021/06/05 13:12:43;;;;;;;3.42;1.70;;;;;;;;;;5154073;27;20023;-65
2021/06/05 13:15:12;;;;;;;4.03;1.80;;;;;;;;;;5149993;27;20064;-64
2021/06/05 13:17:43;;;;;;;10.93;2.05;;;;;;;;;;5137228;27;20051;-65
2021/06/05 13:20:12;;;;;;;8.93;1.80;;;;;;;;;;5135684;27;20037;-66
2021/06/05 13:22:38;;;;;;;6.82;1.75;;;;;;;;;;5152952;27;20083;-64
2021/06/05 13:25:04;;;;;;;9.40;2.15;;;;;;;;;;5153720;27;20026;-64
2021/06/05 13:27:31;;;;;;;7.82;1.90;;;;;;;;;;5153290;27;20021;-64
2021/06/05 13:30:14;;;;;;;5.75;2.38;;;;;;;;;;5153169;27;20022;-65
2021/06/05 13:32:46;;;;;;;7.28;2.28;;;;;;;;;;5153126;27;20023;-65
2021/06/05 13:35:15;;;;;;;9.55;1.67;;;;;;;;;;5153574;27;20022;-64
2021/06/05 13:37:59;;;;;;;8.93;1.90;;;;;;;;;;5153619;27;20022;-64
2021/06/05 13:40:26;;;;;;;9.68;2.08;;;;;;;;;;5153462;27;20035;-64
2021/06/05 13:42:52;;;;;;;7.60;1.60;;;;;;;;;;5153617;27;20118;-64
2021/06/05 13:45:29;;;;;;;8.75;1.58;;;;;;;;;;5153566;27;20033;-65
2021/06/05 13:47:55;;;;;;;5.57;2.00;;;;;;;;;;5153535;27;20019;-64
2021/06/05 13:50:23;;;;;;;7.38;1.65;;;;;;;;;;5153408;27;20094;-65
2021/06/05 13:52:49;;;;;;;8.15;2.10;;;;;;;;;;5153245;27;20078;-65
2021/06/05 13:55:25;;;;;;;5.20;1.60;;;;;;;;;;5135006;27;20011;-64
2021/06/05 13:57:51;;;;;;;3.80;1.48;;;;;;;;;;5153280;27;20483;-64
2021/06/05 14:00:18;;;;;;;5.35;1.55;;;;;;;;;;5153345;27;20060;-64
2021/06/05 14:02:44;;;;;;;5.65;1.90;;;;;;;;;;5153005;27;20026;-64
2021/06/05 14:05:11;;;;;;;10.07;1.52;;;;;;;;;;5153235;27;20026;-65
2021/06/05 14:07:37;;;;;;;4.20;1.50;;;;;;;;;;5153095;27;20021;-65
2021/06/05 14:10:04;;;;;;;4.03;1.40;;;;;;;;;;5134607;27;20030;-65
2021/06/05 14:12:31;;;;;;;4.75;1.38;;;;;;;;;;5134580;27;20103;-64
2021/06/05 14:14:58;;;;;;;6.82;1.90;;;;;;;;;;5153156;27;20504;-65
2021/06/05 14:17:25;;;;;;;5.13;1.70;;;;;;;;;;5153010;27;20023;-64
2021/06/05 14:19:51;;;;;;;2.47;1.15;;;;;;;;;;5152760;27;20035;-64
2021/06/05 14:22:18;;;;;;;4.35;1.70;;;;;;;;;;5153134;27;20027;-65
2021/06/05 14:24:44;;;;;;;3.20;1.70;;;;;;;;;;5153077;27;20031;-64
2021/06/05 14:27:11;;;;;;;3.85;1.70;;;;;;;;;;5153016;27;20019;-65
2021/06/05 14:29:39;;;;;;;6.28;1.55;;;;;;;;;;5134469;27;20038;-64
2021/06/05 14:32:06;;;;;;;4.10;1.60;;;;;;;;;;5134306;27;20022;-65
2021/06/05 14:34:32;;;;;;;6.10;1.63;;;;;;;;;;5152949;27;20500;-65
2021/06/05 14:36:58;;;;;;;3.40;1.67;;;;;;;;;;5153061;27;20389;-63
2021/06/05 14:39:24;;;;;;;3.47;1.58;;;;;;;;;;5134392;27;20699;-64
2021/06/05 14:41:56;;;;;;;5.38;1.80;;;;;;;;;;5152711;27;20787;-64
2021/06/05 14:44:22;;;;;;;4.03;1.92;;;;;;;;;;5152861;27;20063;-64
2021/06/05 14:46:48;;;;;;;4.40;1.60;;;;;;;;;;5137453;27;20038;-64
2021/06/05 14:49:14;;;;;;;5.45;1.30;;;;;;;;;;5156910;27;20018;-63